Overview Statistics Trail Chart Weather Telemetry Raw packets
 

This is the latest recevied weather packets stored in our database for station/object N9BLE. If no packets are shown the sender has not sent any weather packets the latest 10 day(s).

<< 47 48 49 50 51 52 53 >>
Time Temp. Humidity Pressure Rain* Wind** Luminosity Snow
1777728093 5° C 78% 1023.9 hPa 0 mm - 50 W/m² -
1777727790 5° C 75% 1023.6 hPa 0 mm - 190 W/m² -
1777727487 5° C 74% 1023.9 hPa 0 mm - 53 W/m² -
1777727184 5.56° C 76% 1023.8 hPa 0 mm - 64 W/m² -
1777726882 4.44° C 80% 1023.8 hPa 0 mm - 211 W/m² -
1777726578 3.89° C 82% 1023.8 hPa 0 mm - 199 W/m² -
1777726276 3.33° C 84% 1023.9 hPa 0 mm - 185 W/m² -
1777725972 3.33° C 86% 1023.8 hPa 0 mm - 170 W/m² -
1777725669 2.78° C 87% 1023.7 hPa 0 mm - 155 W/m² -
1777725367 2.78° C 89% 1023.8 hPa 0 mm - 139 W/m² -
1777725064 2.22° C 92% 1023.7 hPa 0 mm - 125 W/m² -
1777724761 2.22° C 94% 1023.7 hPa 0 mm - 111 W/m² -
1777724457 1.67° C 95% 1023.8 hPa 0 mm - 96 W/m² -
1777724155 1.11° C 96% 1023.7 hPa 0 mm - 78 W/m² -
1777723852 1.11° C 97% 1023.7 hPa 0 mm - 67 W/m² -
1777723548 0° C 97% 1023.5 hPa 0 mm - 81 W/m² -
1777723250 0° C 97% 1023.6 hPa 0 mm - 63 W/m² -
1777722944 -0.56° C 97% 1023.5 hPa 0 mm - 34 W/m² -
1777722639 -0.56° C 97% 1023.5 hPa 0 mm - 28 W/m² -
1777722336 -0.56° C 97% 1023.2 hPa 0 mm - 21 W/m² -
1777722033 -1.11° C 97% 1023.3 hPa 0 mm - 19 W/m² -
1777721731 -1.11° C 97% 1023.3 hPa 0 mm - 18 W/m² -
1777721429 -1.11° C 97% 1023.2 hPa 0 mm - 18 W/m² -
1777721127 -1.11° C 97% 1023.2 hPa 0 mm - 15 W/m² -
1777720824 -1.11° C 97% 1023.2 hPa 0 mm - 13 W/m² -

* Rain latest hour (hover to see other rain measurements)
** Current wind speed in m/s (hover to see current wind gust speed)